createdAt,value
2023-10-08T00:00:21.693Z,12.86
2023-10-08T00:05:40.798Z,12.85
2023-10-08T00:10:59.687Z,12.85
2023-10-08T00:16:19.737Z,12.85
2023-10-08T00:21:38.726Z,12.85
2023-10-08T00:26:57.893Z,12.85
2023-10-08T00:32:17.476Z,12.85
2023-10-08T00:37:36.877Z,12.85
2023-10-08T00:42:56.218Z,12.84
2023-10-08T00:48:15.741Z,12.84
2023-10-08T00:53:34.917Z,12.84
2023-10-08T00:58:53.997Z,12.84
2023-10-08T01:04:12.975Z,12.84
2023-10-08T01:09:32.338Z,12.84
2023-10-08T01:14:51.076Z,12.84
2023-10-08T01:20:10.758Z,12.83
2023-10-08T01:25:29.577Z,12.84
2023-10-08T01:30:48.819Z,12.83
2023-10-08T01:36:08.312Z,12.83
2023-10-08T01:41:27.572Z,12.83
2023-10-08T01:46:46.315Z,12.83
2023-10-08T01:52:05.928Z,12.82
2023-10-08T01:57:25.272Z,12.82
2023-10-08T02:02:44.791Z,12.82
2023-10-08T02:08:04.124Z,12.82
2023-10-08T02:13:23.468Z,12.82
2023-10-08T02:18:42.953Z,12.82
2023-10-08T02:24:02.281Z,12.82
2023-10-08T02:29:21.290Z,12.81
2023-10-08T02:34:40.041Z,12.81
2023-10-08T02:39:59.311Z,12.8
2023-10-08T02:45:18.378Z,12.81
2023-10-08T02:50:38.018Z,12.8
2023-10-08T02:55:57.355Z,12.8
2023-10-08T03:01:16.487Z,12.8
2023-10-08T03:06:36.106Z,12.8
2023-10-08T03:11:55.149Z,12.79
2023-10-08T03:17:13.895Z,12.8
2023-10-08T03:22:32.920Z,12.79
2023-10-08T03:27:52.701Z,12.79
2023-10-08T03:33:11.946Z,12.79
2023-10-08T03:38:31.090Z,12.78
2023-10-08T03:43:50.541Z,12.78
2023-10-08T03:49:10.268Z,12.78
2023-10-08T03:54:29.671Z,12.77
2023-10-08T03:59:48.720Z,12.77
2023-10-08T04:05:08.371Z,12.77
2023-10-08T04:10:27.534Z,12.76
2023-10-08T04:15:46.281Z,12.76
2023-10-08T04:21:05.412Z,12.76
2023-10-08T04:26:25.074Z,12.76
2023-10-08T04:31:43.775Z,12.75
2023-10-08T04:37:03.242Z,12.74
2023-10-08T04:42:22.450Z,12.75
2023-10-08T04:47:41.519Z,12.74
2023-10-08T04:53:01.116Z,12.74
2023-10-08T04:58:20.069Z,12.74
2023-10-08T05:03:39.431Z,12.73
2023-10-08T05:08:58.328Z,12.72
2023-10-08T05:14:17.356Z,12.72
2023-10-08T05:19:37.318Z,12.71
2023-10-08T05:24:55.174Z,12.71
2023-10-08T05:30:14.631Z,12.71
2023-10-08T05:35:34.169Z,12.7
2023-10-08T05:40:52.869Z,12.7
2023-10-08T05:46:12.088Z,12.7
2023-10-08T05:51:31.714Z,12.69
2023-10-08T05:56:51.196Z,12.69
2023-10-08T06:02:10.173Z,12.7
2023-10-08T06:12:49.559Z,12.71
2023-10-08T06:18:08.710Z,12.72
2023-10-08T06:23:28.080Z,12.72
2023-10-08T06:28:47.060Z,12.73
2023-10-08T06:34:06.147Z,12.73
2023-10-08T06:39:24.988Z,12.72
2023-10-08T06:44:44.103Z,12.72
2023-10-08T06:55:22.389Z,12.72
2023-10-08T07:00:41.304Z,12.77
2023-10-08T07:06:01.098Z,12.85
2023-10-08T07:11:20.182Z,12.97
2023-10-08T07:16:39.752Z,13.18
2023-10-08T07:21:59.144Z,13.36
2023-10-08T07:27:18.418Z,13.41
2023-10-08T07:37:56.546Z,13.42
2023-10-08T07:43:15.557Z,13.37
2023-10-08T07:48:34.898Z,13.36
2023-10-08T07:53:53.504Z,13.38
2023-10-08T07:59:12.729Z,13.42
2023-10-08T08:04:32.290Z,13.44
2023-10-08T08:09:52.307Z,13.47
2023-10-08T08:15:11.566Z,13.51
2023-10-08T08:20:30.797Z,13.5
2023-10-08T08:25:49.702Z,13.52
2023-10-08T08:31:09.066Z,13.5
2023-10-08T08:36:28.243Z,13.56
2023-10-08T08:41:47.479Z,13.67
2023-10-08T08:47:06.939Z,13.58
2023-10-08T08:52:26.520Z,13.54
2023-10-08T08:57:45.088Z,13.5
2023-10-08T09:03:04.474Z,13.53
2023-10-08T09:08:24.056Z,13.63
2023-10-08T09:13:43.353Z,13.56
2023-10-08T09:19:02.901Z,13.56
2023-10-08T09:24:22.359Z,13.58
2023-10-08T09:29:42.063Z,13.63
2023-10-08T09:35:01.334Z,13.71
2023-10-08T09:40:20.955Z,13.72
2023-10-08T09:45:40.135Z,13.74
2023-10-08T09:50:59.269Z,13.88
2023-10-08T09:56:18.655Z,14
2023-10-08T10:01:37.645Z,14.06
2023-10-08T10:06:56.373Z,14.26
2023-10-08T10:12:15.965Z,14.36
2023-10-08T10:17:44.594Z,14.35
2023-10-08T10:22:53.841Z,14.35
2023-10-08T10:28:12.964Z,14.35
2023-10-08T10:33:31.828Z,14.36
2023-10-08T10:38:50.859Z,14.36
2023-10-08T10:44:09.859Z,14.36
2023-10-08T10:49:29.558Z,14.37
2023-10-08T10:54:49.107Z,14.38
2023-10-08T11:00:08.312Z,14.36
2023-10-08T11:05:27.364Z,14.42
2023-10-08T11:10:46.828Z,14.41
2023-10-08T11:16:05.680Z,14.39
2023-10-08T11:21:24.261Z,14.35
2023-10-08T11:26:42.994Z,14.37
2023-10-08T11:32:02.297Z,14.38
2023-10-08T11:37:21.923Z,14.37
2023-10-08T11:42:41.123Z,14.37
2023-10-08T11:53:19.678Z,14.39
2023-10-08T11:58:38.737Z,14.38
2023-10-08T12:03:57.382Z,14.38
2023-10-08T12:09:16.730Z,14.37
2023-10-08T12:14:36.094Z,14.4
2023-10-08T12:19:55.177Z,14.39
2023-10-08T12:25:14.449Z,14.4
2023-10-08T12:30:33.506Z,14.4
2023-10-08T12:35:53.002Z,14.41
2023-10-08T12:41:12.219Z,14.4
2023-10-08T12:46:31.687Z,14.39
2023-10-08T12:51:50.498Z,14.41
2023-10-08T12:57:09.279Z,14.4
2023-10-08T13:02:28.690Z,14.4
2023-10-08T13:07:47.675Z,14.4
2023-10-08T13:13:07.005Z,14.39
2023-10-08T13:18:26.500Z,14.39
2023-10-08T13:23:45.195Z,14.4
2023-10-08T13:29:03.977Z,14.39
2023-10-08T13:34:23.477Z,14.4
2023-10-08T13:39:42.958Z,14.4
2023-10-08T13:45:02.275Z,14.4
2023-10-08T13:50:21.063Z,14.39
2023-10-08T13:55:40.719Z,14.39
2023-10-08T14:00:59.859Z,14.39
2023-10-08T14:06:18.781Z,14.39
2023-10-08T14:11:37.629Z,14.39
2023-10-08T14:16:57.152Z,14.4
2023-10-08T14:22:16.873Z,14.39
2023-10-08T14:27:35.852Z,14.39
2023-10-08T14:32:54.635Z,14.39
2023-10-08T14:38:13.364Z,14.39
2023-10-08T14:43:33.009Z,14.4
2023-10-08T14:48:52.323Z,14.4
2023-10-08T14:54:11.945Z,14.4
2023-10-08T14:59:32.020Z,14.4
2023-10-08T15:05:14.957Z,14.39
2023-10-08T15:10:34.289Z,14.4
2023-10-08T15:15:53.580Z,14.39
2023-10-08T15:21:12.130Z,14.39
2023-10-08T15:26:31.576Z,14.39
2023-10-08T15:31:50.585Z,14.39
2023-10-08T15:37:09.590Z,14.38
2023-10-08T15:42:28.310Z,14.38
2023-10-08T15:47:47.320Z,13.74
2023-10-08T15:53:06.093Z,13.42
2023-10-08T15:58:25.478Z,13.3
2023-10-08T16:03:44.735Z,13.19
2023-10-08T16:09:03.751Z,13.1
2023-10-08T16:14:23.410Z,13.03
2023-10-08T16:25:01.522Z,12.94
2023-10-08T16:30:21.180Z,12.92
2023-10-08T16:35:40.146Z,12.92
2023-10-08T16:40:59.378Z,12.92
2023-10-08T16:46:18.509Z,12.91
2023-10-08T16:51:37.224Z,12.91
2023-10-08T16:56:56.742Z,12.91
2023-10-08T17:02:15.771Z,12.9
2023-10-08T17:07:34.522Z,12.9
2023-10-08T17:12:54.438Z,12.9
2023-10-08T17:18:13.054Z,12.9
2023-10-08T17:23:32.472Z,12.9
2023-10-08T17:28:51.734Z,12.9
2023-10-08T17:34:10.870Z,12.9
2023-10-08T17:39:29.927Z,12.89
2023-10-08T17:44:49.049Z,12.9
2023-10-08T17:55:27.579Z,12.89
2023-10-08T18:00:47.059Z,12.89
2023-10-08T18:06:06.743Z,12.89
2023-10-08T18:11:25.603Z,12.89
2023-10-08T18:22:04.316Z,12.89
2023-10-08T18:27:23.233Z,12.89
2023-10-08T18:32:42.020Z,12.88
2023-10-08T18:38:01.770Z,12.88
2023-10-08T18:43:20.813Z,12.88
2023-10-08T18:48:40.060Z,12.88
2023-10-08T18:53:58.845Z,12.88
2023-10-08T18:59:17.850Z,12.88
2023-10-08T19:04:36.825Z,12.88
2023-10-08T19:09:56.281Z,12.88
2023-10-08T19:15:15.714Z,12.88
2023-10-08T19:20:34.762Z,12.87
2023-10-08T19:31:13.280Z,12.87
2023-10-08T19:36:32.586Z,12.88
2023-10-08T19:41:52.132Z,12.87
2023-10-08T19:47:11.753Z,12.88
2023-10-08T19:52:31.120Z,12.87
2023-10-08T19:57:50.708Z,12.87
2023-10-08T20:03:09.855Z,12.87
2023-10-08T20:08:28.818Z,12.88
2023-10-08T20:13:48.066Z,12.88
2023-10-08T20:19:07.343Z,12.87
2023-10-08T20:24:26.494Z,12.86
2023-10-08T20:29:45.737Z,12.87
2023-10-08T20:35:04.447Z,12.87
2023-10-08T20:40:23.259Z,12.86
2023-10-08T20:45:42.532Z,12.86
2023-10-08T20:51:01.287Z,12.86
2023-10-08T20:56:20.674Z,12.86
2023-10-08T21:01:40.286Z,12.86
2023-10-08T21:06:59.013Z,12.86
2023-10-08T21:12:18.040Z,12.86
2023-10-08T21:17:36.916Z,12.86
2023-10-08T21:22:56.147Z,12.86
2023-10-08T21:28:15.339Z,12.86
2023-10-08T21:33:34.042Z,12.86
2023-10-08T21:38:52.818Z,12.86
2023-10-08T21:44:11.743Z,12.85
2023-10-08T21:49:30.789Z,12.86
2023-10-08T21:54:50.176Z,12.86
2023-10-08T22:00:09.447Z,12.85
2023-10-08T22:05:28.383Z,12.85
2023-10-08T22:10:47.724Z,12.85
2023-10-08T22:16:06.547Z,12.85
2023-10-08T22:21:26.251Z,12.85
2023-10-08T22:26:45.018Z,12.85
2023-10-08T22:32:04.476Z,12.84
2023-10-08T22:37:23.232Z,12.84
2023-10-08T22:42:42.342Z,12.84
2023-10-08T22:48:01.433Z,12.84
2023-10-08T22:53:20.538Z,12.84
2023-10-08T22:58:39.765Z,12.84
2023-10-08T23:03:59.153Z,12.84
2023-10-08T23:09:17.924Z,12.84
2023-10-08T23:14:36.664Z,12.83
2023-10-08T23:19:56.111Z,12.83
2023-10-08T23:25:15.481Z,12.83
2023-10-08T23:30:35.009Z,12.83
2023-10-08T23:35:54.568Z,12.83
2023-10-08T23:41:14.140Z,12.82
2023-10-08T23:46:33.647Z,12.82
2023-10-08T23:51:53.625Z,12.82
2023-10-08T23:57:11.561Z,12.82
